createdAt,value
2023-03-20T00:02:07.118Z,8.75
2023-03-20T00:04:35.374Z,9.05
2023-03-20T00:07:04.245Z,9.25
2023-03-20T00:09:33.166Z,9.00
2023-03-20T00:12:01.805Z,9.85
2023-03-20T00:14:31.559Z,8.50
2023-03-20T00:17:00.389Z,11.10
2023-03-20T00:19:31.299Z,9.82
2023-03-20T00:22:00.245Z,11.15
2023-03-20T00:24:28.623Z,7.82
2023-03-20T00:26:56.898Z,8.63
2023-03-20T00:29:27.779Z,9.63
2023-03-20T00:31:57.883Z,10.45
2023-03-20T00:34:29.059Z,9.60
2023-03-20T00:37:00.964Z,8.88
2023-03-20T00:39:29.172Z,9.88
2023-03-20T00:41:59.368Z,11.32
2023-03-20T00:44:31.044Z,11.20
2023-03-20T00:47:02.752Z,9.13
2023-03-20T00:49:33.368Z,12.02
2023-03-20T00:52:02.516Z,10.52
2023-03-20T00:54:31.412Z,15.55
2023-03-20T00:57:02.114Z,12.73
2023-03-20T00:59:34.281Z,14.70
2023-03-20T01:02:04.362Z,10.82
2023-03-20T01:04:37.733Z,12.15
2023-03-20T01:07:07.113Z,10.63
2023-03-20T01:09:35.756Z,11.35
2023-03-20T01:12:04.824Z,9.70
2023-03-20T01:14:33.531Z,9.60
2023-03-20T01:17:03.399Z,9.35
2023-03-20T01:19:31.673Z,8.65
2023-03-20T01:21:59.859Z,11.32
2023-03-20T01:24:28.110Z,13.73
2023-03-20T01:26:56.381Z,10.60
2023-03-20T01:29:27.272Z,12.55
2023-03-20T01:31:56.619Z,9.15
2023-03-20T01:34:28.138Z,14.57
2023-03-20T01:36:59.135Z,9.68
2023-03-20T01:39:33.859Z,13.90
2023-03-20T01:42:02.360Z,9.15
2023-03-20T01:44:33.784Z,11.13
2023-03-20T01:47:04.644Z,15.23
2023-03-20T01:50:09.954Z,11.32
2023-03-20T01:52:39.858Z,11.75
2023-03-20T01:55:08.730Z,9.73
2023-03-20T01:57:37.738Z,10.40
2023-03-20T02:00:09.585Z,11.30
2023-03-20T02:02:39.339Z,13.30
2023-03-20T02:05:11.042Z,11.05
2023-03-20T02:07:41.200Z,11.32
2023-03-20T02:10:13.009Z,14.82
2023-03-20T02:12:42.357Z,12.93
2023-03-20T02:15:12.988Z,15.30
2023-03-20T02:17:42.846Z,13.38
2023-03-20T02:20:22.177Z,12.57
2023-03-20T02:23:37.036Z,11.10
2023-03-20T02:26:23.514Z,10.50
2023-03-20T02:29:26.866Z,10.85
2023-03-20T02:32:23.751Z,10.88
2023-03-20T02:35:26.446Z,11.30
2023-03-20T02:38:22.520Z,9.77
2023-03-20T02:40:58.917Z,12.60
2023-03-20T02:43:33.196Z,11.45
2023-03-20T02:46:10.485Z,14.35
2023-03-20T02:48:47.520Z,11.18
2023-03-20T02:51:21.300Z,10.40
2023-03-20T02:53:56.656Z,14.48
2023-03-20T02:56:34.146Z,19.52
2023-03-20T02:59:09.375Z,12.98
2023-03-20T03:01:42.707Z,13.82
2023-03-20T03:04:14.476Z,11.13
2023-03-20T03:06:46.207Z,11.48
2023-03-20T03:09:20.722Z,12.40
2023-03-20T03:11:53.043Z,12.27
2023-03-20T03:14:33.892Z,14.73
2023-03-20T03:17:06.120Z,11.70
2023-03-20T03:19:36.361Z,16.42
2023-03-20T03:22:05.146Z,13.27
2023-03-20T03:24:40.713Z,18.15
2023-03-20T03:27:17.411Z,18.70
2023-03-20T03:29:50.021Z,12.52
2023-03-20T03:32:27.381Z,11.73
2023-03-20T03:34:56.435Z,15.13
2023-03-20T03:37:36.714Z,13.60
2023-03-20T03:40:16.249Z,12.73
2023-03-20T03:42:52.497Z,13.23
2023-03-20T03:45:28.059Z,14.25
2023-03-20T03:48:00.467Z,14.73
2023-03-20T03:50:33.648Z,14.50
2023-03-20T03:53:05.618Z,13.52
2023-03-20T03:55:39.714Z,17.58
2023-03-20T03:58:12.918Z,16.30
2023-03-20T04:00:44.247Z,15.73
2023-03-20T04:03:13.450Z,14.20
2023-03-20T04:05:46.387Z,14.48
2023-03-20T04:08:16.668Z,14.05
2023-03-20T04:10:46.727Z,21.67
2023-03-20T04:13:16.497Z,14.70
2023-03-20T04:15:44.947Z,15.45
2023-03-20T04:18:18.596Z,19.15
2023-03-20T04:20:49.305Z,17.90
2023-03-20T04:23:17.568Z,16.10
2023-03-20T04:25:47.402Z,17.17
2023-03-20T04:28:16.812Z,15.43
2023-03-20T04:30:48.305Z,16.02
2023-03-20T04:33:16.616Z,20.05
2023-03-20T04:35:46.956Z,17.55
2023-03-20T04:38:15.884Z,16.70
2023-03-20T04:40:47.246Z,16.65
2023-03-20T04:43:16.133Z,37.20
2023-03-20T04:45:44.646Z,16.75
2023-03-20T04:48:13.096Z,17.02
2023-03-20T04:50:41.453Z,25.17
2023-03-20T04:53:09.872Z,16.08
2023-03-20T04:55:38.161Z,23.98
2023-03-20T04:58:08.230Z,14.23
2023-03-20T05:00:36.438Z,15.35
2023-03-20T05:03:04.842Z,15.88
2023-03-20T05:05:34.556Z,20.55
2023-03-20T05:08:02.945Z,17.58
2023-03-20T05:10:31.249Z,22.92
2023-03-20T05:12:59.398Z,17.02
2023-03-20T05:15:29.298Z,15.52
2023-03-20T05:17:57.756Z,17.20
2023-03-20T05:20:26.020Z,14.40
2023-03-20T05:22:54.226Z,15.18
2023-03-20T05:25:22.499Z,20.63
2023-03-20T05:27:50.782Z,15.40
2023-03-20T05:30:19.828Z,15.88
2023-03-20T05:32:51.050Z,14.30
2023-03-20T05:35:20.124Z,13.25
2023-03-20T05:37:48.365Z,13.00
2023-03-20T05:40:19.354Z,12.30
2023-03-20T05:42:47.770Z,15.93
2023-03-20T05:45:16.183Z,13.57
2023-03-20T05:47:44.606Z,12.95
2023-03-20T05:50:15.954Z,14.15
2023-03-20T05:52:44.292Z,14.57
2023-03-20T05:55:12.572Z,13.68
2023-03-20T05:57:40.928Z,13.65
2023-03-20T06:00:10.888Z,15.45
2023-03-20T06:02:39.528Z,17.73
2023-03-20T06:05:08.090Z,12.85
2023-03-20T06:07:37.880Z,12.52
2023-03-20T06:10:06.754Z,14.73
2023-03-20T06:12:35.109Z,16.85
2023-03-20T06:15:03.412Z,12.50
2023-03-20T06:17:31.664Z,13.30
2023-03-20T06:19:59.945Z,13.23
2023-03-20T06:22:28.285Z,11.63
2023-03-20T06:24:58.461Z,14.75
2023-03-20T06:27:27.375Z,21.60
2023-03-20T06:29:55.644Z,13.93
2023-03-20T06:32:24.171Z,11.15
2023-03-20T06:34:52.369Z,14.60
2023-03-20T06:37:21.064Z,13.13
2023-03-20T06:39:49.952Z,16.48
2023-03-20T06:42:19.863Z,15.02
2023-03-20T06:44:48.191Z,12.57
2023-03-20T06:47:16.954Z,23.80
2023-03-20T06:49:46.104Z,15.52
2023-03-20T06:52:17.955Z,16.65
2023-03-20T06:54:46.668Z,12.30
2023-03-20T06:57:15.437Z,12.07
2023-03-20T06:59:45.447Z,15.48
2023-03-20T07:02:13.985Z,18.65
2023-03-20T07:04:42.657Z,13.07
2023-03-20T07:07:10.957Z,16.10
2023-03-20T07:09:39.871Z,12.95
2023-03-20T07:12:14.621Z,12.43
2023-03-20T07:14:44.662Z,10.77
2023-03-20T07:17:13.788Z,11.80
2023-03-20T07:19:42.171Z,10.05
2023-03-20T07:22:17.505Z,10.98
2023-03-20T07:24:47.319Z,11.77
2023-03-20T07:27:15.848Z,9.63
2023-03-20T07:29:45.725Z,9.70
2023-03-20T07:32:14.040Z,11.02
2023-03-20T07:34:42.619Z,11.43
2023-03-20T07:37:11.096Z,10.05
2023-03-20T07:39:39.355Z,12.60
2023-03-20T07:42:08.019Z,9.93
2023-03-20T07:44:36.297Z,9.50
2023-03-20T07:47:06.333Z,10.18
2023-03-20T07:49:34.674Z,11.68
2023-03-20T07:52:03.417Z,10.27
2023-03-20T07:54:31.662Z,14.02
2023-03-20T07:57:00.108Z,8.02
2023-03-20T07:59:28.643Z,9.60
2023-03-20T08:01:57.051Z,9.15
2023-03-20T08:04:27.120Z,7.82
2023-03-20T08:06:55.728Z,8.95
2023-03-20T08:09:24.131Z,7.38
2023-03-20T08:11:52.385Z,8.07
2023-03-20T08:14:20.557Z,11.10
2023-03-20T08:16:56.336Z,12.95
2023-03-20T08:19:32.406Z,8.43
2023-03-20T08:22:00.742Z,10.27
2023-03-20T08:24:29.050Z,13.13
2023-03-20T08:26:57.924Z,19.65
2023-03-20T08:39:22.438Z,6.32
2023-03-20T16:33:40.381Z,3.30
2023-03-20T16:36:09.748Z,3.75
2023-03-20T16:38:40.478Z,3.15
2023-03-20T16:41:25.804Z,3.90
2023-03-20T16:43:54.128Z,3.75
2023-03-20T16:46:23.946Z,3.90
2023-03-20T16:48:54.149Z,2.10
2023-03-20T16:51:25.632Z,5.53
2023-03-20T16:53:58.764Z,3.33
2023-03-20T16:56:30.550Z,3.80
2023-03-20T16:58:59.281Z,2.70
2023-03-20T17:01:30.294Z,2.95
2023-03-20T17:04:00.407Z,4.45
2023-03-20T17:06:50.071Z,3.47
2023-03-20T17:09:24.781Z,3.97
2023-03-20T17:12:01.334Z,3.78
2023-03-20T17:14:29.782Z,3.88
2023-03-20T17:16:58.224Z,2.90
2023-03-20T17:19:29.903Z,3.70
2023-03-20T17:22:03.655Z,4.50
2023-03-20T17:24:33.389Z,16.75
2023-03-20T17:27:01.500Z,3.33
2023-03-20T17:29:29.770Z,3.70
2023-03-20T17:31:59.067Z,3.60
2023-03-20T17:34:27.434Z,4.80
2023-03-20T17:36:57.246Z,3.75
2023-03-20T17:39:25.538Z,3.08
2023-03-20T17:41:55.234Z,4.07
2023-03-20T17:44:23.640Z,5.00
2023-03-20T17:46:58.404Z,17.40
2023-03-20T17:49:28.321Z,5.30
2023-03-20T17:51:56.864Z,3.67
2023-03-20T17:54:25.126Z,4.63
2023-03-20T17:56:55.078Z,3.85
2023-03-20T17:59:25.029Z,8.95
2023-03-20T18:01:53.347Z,3.97
2023-03-20T18:04:21.551Z,4.50
2023-03-20T18:06:50.094Z,4.13
2023-03-20T18:09:18.351Z,4.15
2023-03-20T18:11:46.677Z,3.35
2023-03-20T18:14:19.054Z,4.05
2023-03-20T18:16:47.405Z,4.82
2023-03-20T18:19:23.489Z,4.15
2023-03-20T18:21:51.713Z,4.10
2023-03-20T18:24:19.938Z,3.85
2023-03-20T18:26:48.796Z,5.00
2023-03-20T18:29:19.096Z,5.13
2023-03-20T18:31:48.550Z,3.50
2023-03-20T18:34:17.015Z,4.00
2023-03-20T18:36:45.913Z,4.63
2023-03-20T18:39:19.081Z,4.90
2023-03-20T18:41:47.444Z,5.50
2023-03-20T18:44:17.454Z,8.57
2023-03-20T18:46:45.708Z,8.20
2023-03-20T18:49:17.308Z,4.10
2023-03-20T18:51:46.257Z,4.75
2023-03-20T18:54:15.171Z,7.03
2023-03-20T18:56:43.458Z,4.63
2023-03-20T18:59:14.065Z,5.32
2023-03-20T19:01:43.840Z,5.40
2023-03-20T19:04:12.237Z,4.18
2023-03-20T19:06:40.450Z,5.75
2023-03-20T19:09:10.940Z,5.00
2023-03-20T19:11:39.385Z,3.67
2023-03-20T19:14:07.609Z,6.05
2023-03-20T19:16:38.253Z,5.63
2023-03-20T19:19:09.371Z,4.95
2023-03-20T19:21:37.653Z,4.88
2023-03-20T19:24:08.245Z,4.85
2023-03-20T19:26:38.228Z,5.18
2023-03-20T19:29:09.510Z,5.70
2023-03-20T19:31:38.148Z,6.57
2023-03-20T19:34:08.153Z,5.38
2023-03-20T19:36:38.697Z,8.32
2023-03-20T19:39:09.703Z,5.65
2023-03-20T19:41:38.064Z,7.38
2023-03-20T19:44:07.108Z,5.03
2023-03-20T19:46:40.258Z,6.28
2023-03-20T19:49:19.002Z,5.22
2023-03-20T19:51:48.106Z,5.45
2023-03-20T19:54:16.452Z,5.85
2023-03-20T19:56:44.670Z,5.55
2023-03-20T19:59:16.350Z,4.80
2023-03-20T20:01:46.178Z,4.95
2023-03-20T20:04:16.442Z,5.50
2023-03-20T20:06:47.155Z,12.60
2023-03-20T20:09:16.812Z,4.70
2023-03-20T20:11:45.401Z,5.63
2023-03-20T20:14:15.173Z,7.25
2023-03-20T20:16:45.749Z,5.75
2023-03-20T20:19:15.734Z,5.10
2023-03-20T20:24:33.193Z,5.90
2023-03-20T20:27:16.214Z,5.40
2023-03-20T20:29:49.328Z,6.00
2023-03-20T20:32:18.402Z,5.00
2023-03-20T20:38:27.087Z,4.85
2023-03-20T20:40:30.671Z,4.43
2023-03-20T20:43:01.614Z,7.40
2023-03-20T20:45:32.268Z,5.00
2023-03-20T20:48:01.306Z,5.13
2023-03-20T20:50:32.875Z,4.93
2023-03-20T20:53:01.703Z,5.53
2023-03-20T20:55:30.047Z,4.65
2023-03-20T20:57:58.578Z,4.20
2023-03-20T21:00:45.538Z,5.47
2023-03-20T21:03:15.976Z,5.90
2023-03-20T21:05:46.015Z,5.40
2023-03-20T21:08:15.312Z,4.65
2023-03-20T21:10:46.153Z,5.43
2023-03-20T21:13:14.566Z,4.55
2023-03-20T21:15:43.525Z,4.30
2023-03-20T21:18:11.864Z,4.03
2023-03-20T21:20:40.076Z,4.78
2023-03-20T21:23:09.797Z,4.88
2023-03-20T21:25:40.926Z,4.88
2023-03-20T21:28:11.280Z,4.78
2023-03-20T21:30:54.560Z,6.43
2023-03-20T21:33:30.388Z,4.45
2023-03-20T21:35:58.964Z,4.93
2023-03-20T21:41:18.152Z,5.15
2023-03-20T21:43:47.441Z,6.78
2023-03-20T21:46:52.557Z,7.03
2023-03-20T21:55:22.374Z,5.25
2023-03-20T22:03:14.226Z,4.22
2023-03-20T22:12:16.597Z,4.28
2023-03-20T22:17:51.060Z,5.13
2023-03-20T22:20:44.677Z,5.15
2023-03-20T22:29:07.012Z,10.80
2023-03-20T22:34:53.732Z,9.23
2023-03-20T22:43:31.796Z,4.47
2023-03-20T22:45:17.128Z,4.80
2023-03-20T22:47:45.661Z,6.15
2023-03-20T22:50:14.201Z,4.70
2023-03-20T22:52:49.174Z,4.60
2023-03-20T22:55:18.662Z,4.47
2023-03-20T22:58:04.004Z,4.63
2023-03-20T23:00:36.826Z,5.00
2023-03-20T23:03:19.606Z,4.20
2023-03-20T23:05:51.700Z,5.10
2023-03-20T23:08:20.016Z,5.32
2023-03-20T23:10:50.051Z,5.50
2023-03-20T23:13:20.491Z,7.30
2023-03-20T23:15:51.721Z,4.60
2023-03-20T23:18:21.037Z,4.70
2023-03-20T23:20:49.419Z,4.32
2023-03-20T23:23:17.990Z,5.07
2023-03-20T23:25:46.462Z,6.10
2023-03-20T23:28:14.831Z,6.18
2023-03-20T23:30:49.815Z,5.47
2023-03-20T23:33:27.557Z,13.10
2023-03-20T23:36:14.323Z,6.90
2023-03-20T23:38:44.815Z,5.28
2023-03-20T23:41:14.109Z,5.72
2023-03-20T23:43:42.722Z,6.30
2023-03-20T23:46:11.678Z,5.18
2023-03-20T23:48:41.654Z,5.68
2023-03-20T23:51:10.341Z,5.32
2023-03-20T23:53:39.706Z,6.10
2023-03-20T23:56:09.370Z,4.68
2023-03-20T23:58:41.926Z,5.32
